Time;durP1;ratioP1;P1;durP2;ratioP2;P2;SDS_P1;SDS_P2;PMS_P1;PMS_P2;Temp;Humidity;BMP_temperature;BMP_pressure;BME280_temperature;BME280_humidity;BME280_pressure;Samples;Min_cycle;Max_cycle;Signal;HPM_P1;HPM_P2
2021/01/24 00:01:47;;;;;;;16.25;14.55;;;;;;;4.38;79.04;97714.69;10454292;28;20102;-70
2021/01/24 00:06:49;;;;;;;16.55;14.70;;;;;;;4.34;79.12;97714.16;10458616;28;20052;-70
2021/01/24 00:11:50;;;;;;;15.57;13.57;;;;;;;4.40;79.35;97704.84;10457191;28;20040;-71
2021/01/24 00:16:51;;;;;;;14.43;12.93;;;;;;;4.43;79.01;97712.47;10470849;28;20104;-71
2021/01/24 00:21:53;;;;;;;14.57;12.98;;;;;;;4.38;79.10;97698.88;10475031;28;20049;-70
2021/01/24 00:26:54;;;;;;;15.98;14.38;;;;;;;4.38;79.29;97696.25;10470671;28;20059;-71
2021/01/24 00:31:55;;;;;;;15.60;13.50;;;;;;;4.36;79.86;97690.31;10465552;28;20060;-73
2021/01/24 00:36:56;;;;;;;13.98;12.57;;;;;;;4.41;80.28;97693.31;10463954;28;20413;-70
2021/01/24 00:41:58;;;;;;;13.20;11.90;;;;;;;4.37;80.21;97689.34;10480589;28;20033;-70
2021/01/24 00:46:59;;;;;;;14.77;12.75;;;;;;;4.39;80.13;97690.00;10477293;28;20036;-71
2021/01/24 00:52:01;;;;;;;11.80;10.55;;;;;;;4.40;80.62;97681.97;10467453;28;20051;-70
2021/01/24 00:57:02;;;;;;;11.07;9.95;;;;;;;4.35;80.60;97680.75;10470963;28;20086;-72
2021/01/24 01:02:04;;;;;;;9.68;8.65;;;;;;;4.36;80.74;97679.78;10469124;28;20052;-71
2021/01/24 01:07:05;;;;;;;9.98;9.00;;;;;;;4.24;81.03;97679.97;10460420;28;20401;-72
2021/01/24 01:12:07;;;;;;;8.30;7.45;;;;;;;4.26;81.11;97674.53;10489993;28;20041;-70
2021/01/24 01:17:08;;;;;;;8.13;7.43;;;;;;;4.23;81.39;97680.94;10486928;28;20048;-70
2021/01/24 01:22:09;;;;;;;6.18;5.57;;;;;;;4.16;82.16;97679.88;10490856;28;20448;-70
2021/01/24 01:27:11;;;;;;;6.18;5.57;;;;;;;4.10;82.48;97675.19;10499177;28;20048;-70
2021/01/24 01:32:12;;;;;;;4.18;3.78;;;;;;;4.15;83.01;97672.94;10466765;28;20079;-70
2021/01/24 01:37:13;;;;;;;3.08;2.88;;;;;;;4.14;82.74;97673.09;10480417;28;20044;-69
2021/01/24 01:42:16;;;;;;;3.60;2.08;;;;;;;4.02;82.73;97672.44;10464300;28;20052;-70
2021/01/24 01:47:25;;;;;;;2.10;1.67;;;;;;;3.86;83.46;97679.16;10458974;28;20055;-69
2021/01/24 01:52:28;;;;;;;1.52;1.42;;;;;;;3.76;82.62;97686.25;10474808;28;20071;-70
2021/01/24 01:57:29;;;;;;;1.50;1.00;;;;;;;3.77;82.90;97690.56;10465639;28;20052;-69
2021/01/24 02:03:09;;;;;;;1.23;0.80;;;;;;;3.80;82.07;97682.38;10475939;28;20663;-70
2021/01/24 02:08:49;;;;;;;1.10;0.85;;;;;;;3.69;81.72;97683.38;10471810;28;20091;-71
2021/01/24 02:14:22;;;;;;;1.23;0.95;;;;;;;3.49;82.97;97682.56;10470016;28;20456;-70
2021/01/24 02:19:38;;;;;;;0.85;0.40;;;;;;;3.22;82.06;97685.13;10467339;28;20045;-70
2021/01/24 02:24:45;;;;;;;0.30;0.30;;;;;;;3.07;81.91;97687.34;10464571;28;20489;-71
2021/01/24 02:30:05;;;;;;;0.15;0.10;;;;;;;2.68;82.45;97685.53;10466389;28;20113;-70
2021/01/24 02:35:07;;;;;;;0.13;0.10;;;;;;;2.56;83.34;97684.00;10465737;28;20037;-70
2021/01/24 02:40:11;;;;;;;0.30;0.20;;;;;;;2.65;83.60;97693.69;10464518;28;20051;-71
2021/01/24 02:45:12;;;;;;;0.10;0.10;;;;;;;2.75;82.18;97685.81;10464934;28;20049;-73
2021/01/24 02:50:16;;;;;;;0.20;0.20;;;;;;;2.81;82.15;97696.59;10466777;28;20051;-70
2021/01/24 02:55:18;;;;;;;0.20;0.20;;;;;;;2.73;82.41;97695.63;10457488;28;20525;-70
2021/01/24 03:00:20;;;;;;;0.25;0.25;;;;;;;2.51;83.32;97701.94;10462483;28;20098;-70
2021/01/24 03:05:22;;;;;;;0.57;0.43;;;;;;;2.54;83.78;97717.41;10457718;28;20052;-71
2021/01/24 03:10:25;;;;;;;0.38;0.30;;;;;;;2.25;84.75;97707.66;10468375;28;20113;-70
2021/01/24 03:15:28;;;;;;;1.65;0.90;;;;;;;2.09;85.71;97723.94;10468906;28;20060;-70
2021/01/24 03:20:34;;;;;;;0.80;0.80;;;;;;;2.07;86.61;97726.69;10495127;28;20361;-70
2021/01/24 03:25:40;;;;;;;1.20;1.10;;;;;;;2.10;85.72;97734.28;10495386;28;20321;-73
2021/01/24 03:30:41;;;;;;;1.85;1.45;;;;;;;1.94;86.64;97732.16;10507851;28;20121;-72
2021/01/24 03:35:42;;;;;;;1.15;1.05;;;;;;;1.88;87.24;97752.84;10475223;28;20048;-71
2021/01/24 03:40:44;;;;;;;1.67;1.35;;;;;;;1.88;87.86;97747.59;10471876;28;20170;-70
2021/01/24 03:45:45;;;;;;;1.60;1.50;;;;;;;1.93;87.97;97761.13;10488425;28;20056;-70
2021/01/24 03:50:46;;;;;;;1.40;1.30;;;;;;;1.96;86.74;97776.63;10512154;28;20056;-71
2021/01/24 03:55:48;;;;;;;1.58;1.30;;;;;;;2.06;87.72;97776.69;10509969;28;20053;-70
2021/01/24 04:00:49;;;;;;;1.65;1.55;;;;;;;2.12;87.09;97786.66;10507849;28;20130;-69
2021/01/24 04:05:50;;;;;;;1.85;1.73;;;;;;;2.29;86.36;97782.59;10486157;28;20048;-70
2021/01/24 04:10:51;;;;;;;2.38;2.17;;;;;;;2.53;85.68;97792.75;10483548;28;20056;-70
2021/01/24 04:15:53;;;;;;;1.40;1.30;;;;;;;2.45;84.95;97801.31;10471158;28;20052;-69
2021/01/24 04:20:54;;;;;;;1.08;0.90;;;;;;;2.47;84.74;97802.00;10481178;28;20436;-69
2021/01/24 04:25:56;;;;;;;1.17;1.08;;;;;;;2.48;85.34;97813.34;10496083;28;20044;-72
2021/01/24 04:30:57;;;;;;;0.70;0.70;;;;;;;2.48;85.28;97819.41;10495302;28;20402;-69
2021/01/24 04:35:59;;;;;;;1.00;0.60;;;;;;;2.45;84.86;97822.31;10499518;28;20056;-70
2021/01/24 04:41:01;;;;;;;0.63;0.50;;;;;;;2.41;84.38;97828.78;10464380;28;20049;-69
2021/01/24 04:46:03;;;;;;;0.30;0.20;;;;;;;2.31;83.61;97854.16;10467527;28;20515;-69
2021/01/24 04:51:05;;;;;;;0.60;0.30;;;;;;;2.33;84.97;97857.50;10472949;28;20056;-70
2021/01/24 04:56:07;;;;;;;0.38;0.38;;;;;;;2.36;83.97;97865.13;10466477;28;20056;-69
2021/01/24 05:01:09;;;;;;;0.40;0.30;;;;;;;2.38;84.70;97876.31;10467306;28;20044;-69
2021/01/24 05:06:10;;;;;;;1.15;0.22;;;;;;;2.23;84.98;97870.56;10473721;28;20055;-69
2021/01/24 05:11:13;;;;;;;0.65;0.40;;;;;;;2.36;84.64;97875.63;10465817;28;20045;-69
2021/01/24 05:16:15;;;;;;;0.60;0.40;;;;;;;2.17;85.17;97873.69;10475570;28;20048;-69
2021/01/24 05:21:16;;;;;;;1.05;0.52;;;;;;;2.19;85.96;97886.69;10473972;28;22858;-69
2021/01/24 05:26:19;;;;;;;1.63;0.60;;;;;;;2.20;85.58;97888.38;10473713;28;20239;-68
2021/01/24 05:31:22;;;;;;;0.75;0.70;;;;;;;2.11;85.19;97893.41;10489026;28;20075;-68
2021/01/24 05:36:24;;;;;;;1.95;0.70;;;;;;;2.06;86.12;97892.16;10501702;28;20044;-70
2021/01/24 05:41:29;;;;;;;1.88;0.95;;;;;;;2.02;85.87;97894.19;10485792;28;20044;-70
2021/01/24 05:46:34;;;;;;;1.25;0.90;;;;;;;2.00;85.70;97911.84;10472641;28;20522;-69
2021/01/24 05:51:35;;;;;;;1.63;1.00;;;;;;;1.97;86.33;97898.13;10477042;27;20064;-69
2021/01/24 05:56:37;;;;;;;1.50;1.38;;;;;;;2.07;85.62;97920.91;10463975;28;20063;-70
2021/01/24 06:01:38;;;;;;;1.67;1.40;;;;;;;2.24;85.90;97926.53;10496305;28;20067;-69
2021/01/24 06:06:39;;;;;;;2.08;1.80;;;;;;;2.17;85.78;97928.00;10519831;28;20042;-70
2021/01/24 06:11:41;;;;;;;2.78;2.17;;;;;;;2.19;85.76;97936.56;10516335;28;20040;-69
2021/01/24 06:16:47;;;;;;;3.03;2.72;;;;;;;2.05;86.47;97937.72;10484152;28;20044;-69
2021/01/24 06:21:53;;;;;;;2.67;2.33;;;;;;;1.94;86.71;97946.47;10471688;28;20090;-70
2021/01/24 06:26:58;;;;;;;;;;;;;;;1.86;88.09;97946.25;10471753;28;20559;-69
2021/01/24 06:31:59;;;;;;;3.80;2.92;;;;;;;1.90;86.90;97945.88;10465647;28;20377;-69
2021/01/24 06:37:07;;;;;;;3.25;2.95;;;;;;;2.03;86.88;97956.22;10466863;28;20506;-69
2021/01/24 06:42:08;;;;;;;3.50;3.20;;;;;;;1.99;86.60;97964.47;10489443;28;20060;-71
2021/01/24 06:47:35;;;;;;;3.88;3.15;;;;;;;2.01;86.35;97957.28;10506254;28;20102;-70
2021/01/24 06:52:37;;;;;;;3.50;3.13;;;;;;;1.94;86.23;97978.78;10479113;28;20051;-70
2021/01/24 06:57:38;;;;;;;3.80;3.42;;;;;;;1.82;86.80;97984.19;10510023;28;20056;-68
2021/01/24 07:02:39;;;;;;;4.45;3.22;;;;;;;1.73;87.97;98015.44;10486445;28;20567;-72
2021/01/24 07:07:42;;;;;;;5.15;4.20;;;;;;;1.68;87.87;98009.75;10450818;28;20044;-70
2021/01/24 07:12:45;;;;;;;4.35;3.95;;;;;;;1.83;87.91;98022.59;10458507;28;20137;-70
2021/01/24 07:18:00;;;;;;;4.80;4.25;;;;;;;1.87;87.33;98029.25;10456089;28;20335;-69
2021/01/24 07:23:01;;;;;;;;;;;;;;;1.89;86.39;98036.06;10453666;28;20182;-70
2021/01/24 07:28:03;;;;;;;5.65;4.20;;;;;;;1.67;87.08;98030.84;10457331;28;19916;-70
2021/01/24 07:33:04;;;;;;;4.50;3.97;;;;;;;1.61;88.21;98055.78;10454973;28;20037;-70
2021/01/24 07:38:08;;;;;;;5.55;4.82;;;;;;;1.67;88.35;98049.22;10476369;28;20194;-70
2021/01/24 07:43:09;;;;;;;4.63;4.13;;;;;;;1.56;88.20;98057.91;10484124;28;20052;-71
2021/01/24 07:48:11;;;;;;;5.13;3.88;;;;;;;1.56;88.63;98052.66;10482670;28;20162;-71
2021/01/24 07:53:12;;;;;;;4.65;4.22;;;;;;;1.56;88.64;98082.38;10465459;28;20132;-70
2021/01/24 07:58:14;;;;;;;5.10;3.78;;;;;;;1.54;88.65;98091.28;10457452;28;20880;-70
2021/01/24 08:03:22;;;;;;;4.78;4.28;;;;;;;1.57;90.42;98086.63;10455222;28;20068;-69
2021/01/24 08:08:23;;;;;;;5.70;3.75;;;;;;;1.56;89.52;98095.47;10453321;28;20055;-69
2021/01/24 08:13:24;;;;;;;6.90;4.07;;;;;;;1.53;89.67;98105.34;10461090;28;20136;-70
2021/01/24 08:18:27;;;;;;;4.00;3.17;;;;;;;1.62;89.08;98117.75;10460555;28;20070;-71
2021/01/24 08:23:29;;;;;;;3.95;3.55;;;;;;;1.46;89.60;98106.81;10457031;28;20656;-69
2021/01/24 08:28:31;;;;;;;4.25;3.42;;;;;;;1.50;90.03;98121.31;10458493;28;20101;-70
2021/01/24 08:33:32;;;;;;;2.78;2.55;;;;;;;1.55;89.76;98121.81;10462298;28;20547;-69
2021/01/24 08:38:34;;;;;;;3.60;2.97;;;;;;;1.53;90.18;98126.31;10463669;28;20060;-71
2021/01/24 08:43:35;;;;;;;3.15;2.85;;;;;;;1.52;89.17;98135.16;10467969;28;20091;-69
2021/01/24 08:48:36;;;;;;;2.95;2.65;;;;;;;1.51;90.22;98155.28;10465775;28;20525;-69
2021/01/24 08:53:37;;;;;;;2.55;2.33;;;;;;;1.42;90.21;98162.06;10463769;28;20056;-70
2021/01/24 08:58:39;;;;;;;3.30;3.00;;;;;;;1.55;90.33;98171.66;10459451;28;21111;-74
2021/01/24 09:03:40;;;;;;;3.35;3.05;;;;;;;1.42;90.60;98192.72;10460575;28;20117;-70
2021/01/24 09:08:52;;;;;;;4.28;2.90;;;;;;;1.44;91.52;98203.06;10460509;28;20100;-70
2021/01/24 09:13:53;;;;;;;3.67;2.92;;;;;;;1.58;90.54;98200.25;10455841;28;20107;-71
2021/01/24 09:18:54;;;;;;;3.60;3.30;;;;;;;1.57;90.56;98216.94;10460280;28;20413;-69
2021/01/24 09:23:55;;;;;;;3.00;2.72;;;;;;;1.54;90.03;98222.41;10454235;28;20090;-71
2021/01/24 09:28:57;;;;;;;4.18;3.22;;;;;;;1.55;90.62;98235.41;10456454;28;20044;-70
2021/01/24 09:33:58;;;;;;;3.58;3.28;;;;;;;1.55;89.96;98229.34;10456468;28;20056;-71
2021/01/24 09:38:59;;;;;;;3.13;2.83;;;;;;;1.72;90.10;98249.84;10453985;28;20053;-71
2021/01/24 09:44:01;;;;;;;4.50;3.15;;;;;;;1.81;89.84;98250.94;10488611;28;20135;-73
2021/01/24 09:49:03;;;;;;;4.95;3.05;;;;;;;2.02;88.95;98263.38;10476899;28;20052;-72
2021/01/24 09:54:05;;;;;;;2.53;1.90;;;;;;;2.09;88.39;98268.03;10455048;28;20106;-68
2021/01/24 09:59:06;;;;;;;2.35;2.10;;;;;;;2.19;87.35;98281.31;10453674;28;20056;-70
2021/01/24 10:04:08;;;;;;;2.63;1.92;;;;;;;2.11;87.32;98291.53;10452726;28;20048;-70
2021/01/24 10:09:09;;;;;;;2.60;2.05;;;;;;;2.20;87.93;98303.94;10464041;28;20052;-69
2021/01/24 10:14:11;;;;;;;2.35;2.15;;;;;;;2.30;87.30;98317.22;10456054;28;20118;-69
2021/01/24 10:19:13;;;;;;;2.95;2.38;;;;;;;2.23;86.77;98323.88;10437086;28;20280;-70
2021/01/24 10:24:14;;;;;;;1.90;1.67;;;;;;;2.18;86.89;98337.38;10452294;28;20067;-69
2021/01/24 10:29:16;;;;;;;1.92;1.70;;;;;;;2.35;85.92;98338.69;10458384;28;20044;-69
2021/01/24 10:34:17;;;;;;;2.50;1.65;;;;;;;2.46;85.96;98354.47;10451779;28;20044;-70
2021/01/24 10:39:18;;;;;;;1.92;1.73;;;;;;;2.43;86.74;98367.84;10452589;28;20063;-70
2021/01/24 10:44:19;;;;;;;2.00;1.80;;;;;;;2.56;85.54;98372.13;10454784;28;20486;-69
2021/01/24 10:54:34;;;;;;;3.00;2.67;;;;;;;2.60;84.50;98368.31;10512129;28;20646;-67
2021/01/24 10:59:35;;;;;;;10.05;9.05;;;;;;;2.78;84.29;98377.38;10500774;28;20660;-66
2021/01/24 11:04:36;;;;;;;1.90;1.50;;;;;;;2.62;82.36;98382.16;10472879;28;20062;-68
2021/01/24 11:09:38;;;;;;;4.53;2.45;;;;;;;2.76;83.16;98400.34;10490763;28;20039;-68
2021/01/24 11:14:39;;;;;;;10.27;6.97;;;;;;;2.93;82.90;98414.78;10482928;28;20056;-67
2021/01/24 11:19:40;;;;;;;2.53;1.60;;;;;;;2.90;82.42;98422.03;10476253;28;20060;-66
2021/01/24 11:24:41;;;;;;;1.95;1.70;;;;;;;3.02;81.84;98423.75;10486371;28;20059;-66
2021/01/24 11:29:43;;;;;;;3.63;2.67;;;;;;;2.97;81.59;98428.50;10475548;28;20492;-67
2021/01/24 11:34:44;;;;;;;2.47;2.00;;;;;;;3.05;81.60;98446.28;10484103;28;20052;-67
2021/01/24 11:39:45;;;;;;;1.80;1.70;;;;;;;3.09;80.96;98453.84;10475110;28;20044;-66
2021/01/24 11:44:47;;;;;;;2.47;1.80;;;;;;;3.18;80.84;98461.00;10476970;28;20060;-67
2021/01/24 11:49:48;;;;;;;2.53;2.13;;;;;;;3.14;80.64;98464.84;10502289;28;20056;-67
2021/01/24 11:54:50;;;;;;;4.55;2.95;;;;;;;3.22;79.62;98474.75;10490357;28;20060;-67
2021/01/24 11:59:51;;;;;;;2.30;2.10;;;;;;;3.19;79.88;98473.19;10485902;28;20098;-68
2021/01/24 12:04:52;;;;;;;3.55;2.53;;;;;;;3.25;79.78;98489.47;10491763;28;20137;-66
2021/01/24 12:09:54;;;;;;;2.83;2.42;;;;;;;3.25;78.77;98500.81;10500072;28;20401;-67
2021/01/24 12:14:55;;;;;;;3.20;2.60;;;;;;;3.23;78.35;98502.72;10496717;28;20048;-66
2021/01/24 12:19:56;;;;;;;3.83;3.40;;;;;;;3.27;78.38;98509.44;10486437;28;20052;-66
2021/01/24 12:24:57;;;;;;;39.20;35.90;;;;;;;3.50;79.23;98506.78;10489223;28;20052;-67
2021/01/24 12:29:59;;;;;;;4.72;4.07;;;;;;;3.56;78.40;98513.31;10483525;28;20048;-67
2021/01/24 12:35:00;;;;;;;3.35;3.05;;;;;;;3.54;77.15;98513.44;10484791;28;20058;-67
2021/01/24 12:40:06;;;;;;;3.30;3.00;;;;;;;3.44;76.67;98513.34;10494462;28;20520;-66
2021/01/24 12:45:08;;;;;;;4.30;3.63;;;;;;;3.45;77.95;98517.66;10492483;28;20044;-67
2021/01/24 12:50:10;;;;;;;5.53;3.55;;;;;;;3.75;77.06;98517.97;10483971;28;20136;-66
2021/01/24 12:55:12;;;;;;;4.50;3.67;;;;;;;3.89;77.30;98521.16;10488382;28;20045;-67
2021/01/24 13:00:14;;;;;;;4.10;3.50;;;;;;;3.86;76.58;98537.22;10490317;28;20506;-67
2021/01/24 13:05:15;;;;;;;3.78;3.47;;;;;;;3.97;75.99;98530.25;10484448;28;20071;-66
2021/01/24 13:10:17;;;;;;;4.30;3.42;;;;;;;4.31;75.36;98535.38;10486801;28;20121;-66
2021/01/24 13:15:18;;;;;;;3.47;3.00;;;;;;;4.50;73.55;98519.72;10483398;27;20463;-67
2021/01/24 13:20:19;;;;;;;3.72;3.33;;;;;;;4.41;74.57;98525.78;10479586;28;20625;-67
2021/01/24 13:25:21;;;;;;;3.50;3.20;;;;;;;4.29;73.99;98493.38;10486564;28;20055;-70
2021/01/24 13:30:22;;;;;;;3.83;2.67;;;;;;;4.89;72.26;98529.72;10486676;28;20055;-67
2021/01/24 13:35:24;;;;;;;2.67;2.45;;;;;;;6.06;66.38;98542.56;10486425;28;20052;-66
2021/01/24 13:40:26;;;;;;;3.22;2.33;;;;;;;5.91;67.68;98545.53;10493846;28;20067;-66
2021/01/24 13:45:28;;;;;;;4.25;2.45;;;;;;;6.76;63.48;98553.84;10485939;28;20047;-71
2021/01/24 13:50:29;;;;;;;2.45;1.80;;;;;;;9.89;55.44;98551.63;10485572;28;20561;-66
2021/01/24 13:55:30;;;;;;;1.70;1.30;;;;;;;8.95;54.55;98562.06;10486848;28;20669;-66
2021/01/24 14:00:31;;;;;;;1.63;1.52;;;;;;;8.68;56.60;98565.66;10479557;28;20044;-67
2021/01/24 14:05:33;;;;;;;2.20;2.00;;;;;;;6.78;61.01;98545.78;10476397;28;20102;-67
2021/01/24 14:10:36;;;;;;;3.22;2.92;;;;;;;6.33;62.63;98586.81;10487216;28;20129;-67
2021/01/24 14:15:37;;;;;;;2.78;2.35;;;;;;;5.54;64.53;98606.84;10486419;28;20047;-67
2021/01/24 14:20:38;;;;;;;3.30;2.63;;;;;;;4.96;67.33;98612.63;10481542;28;20056;-66
2021/01/24 14:25:39;;;;;;;3.90;2.83;;;;;;;4.59;68.34;98616.50;10479932;28;20048;-67
2021/01/24 14:30:41;;;;;;;4.22;3.42;;;;;;;4.54;69.37;98610.75;10485703;28;24459;-66
2021/01/24 14:35:43;;;;;;;5.45;4.53;;;;;;;4.62;70.21;98638.28;10485856;28;20189;-66
2021/01/24 14:40:44;;;;;;;3.50;3.20;;;;;;;4.81;69.15;98627.91;10473647;28;20123;-66
2021/01/24 14:45:46;;;;;;;26.52;23.83;;;;;;;5.05;67.92;98655.84;10486338;28;20094;-66
2021/01/24 14:50:47;;;;;;;4.93;3.13;;;;;;;5.15;69.32;98635.66;10480509;28;20055;-65
2021/01/24 14:55:53;;;;;;;5.15;3.00;;;;;;;5.18;67.68;98645.09;10479156;28;20048;-66
2021/01/24 15:00:54;;;;;;;3.55;3.25;;;;;;;4.73;67.93;98643.53;10487104;28;20048;-65
2021/01/24 15:05:55;;;;;;;4.32;3.95;;;;;;;4.56;69.63;98658.06;10497598;28;20044;-69
2021/01/24 15:10:56;;;;;;;3.95;3.65;;;;;;;4.44;70.47;98651.97;10484800;28;20383;-67
2021/01/24 15:15:58;;;;;;;5.72;4.72;;;;;;;4.54;70.14;98666.09;10489782;28;20155;-67
2021/01/24 15:20:59;;;;;;;4.43;4.00;;;;;;;4.37;70.79;98671.91;10475665;28;20041;-65
2021/01/24 15:26:04;;;;;;;5.00;3.78;;;;;;;4.17;71.27;98655.88;10485480;28;20055;-65
2021/01/24 15:31:05;;;;;;;4.75;4.22;;;;;;;4.15;71.04;98663.06;10484664;28;20119;-66
2021/01/24 15:36:06;;;;;;;4.55;4.25;;;;;;;4.11;71.11;98666.06;10483620;28;20174;-65
2021/01/24 15:41:09;;;;;;;6.30;5.10;;;;;;;4.11;72.01;98661.63;10476334;28;20040;-67
2021/01/24 15:46:10;;;;;;;6.72;6.07;;;;;;;3.94;71.42;98664.75;10480799;28;20086;-66
2021/01/24 15:51:11;;;;;;;7.28;6.57;;;;;;;4.02;71.87;98676.38;10483495;28;20075;-66
2021/01/24 15:56:13;;;;;;;9.02;6.43;;;;;;;4.05;71.28;98680.53;10481131;28;20055;-66
2021/01/24 16:01:14;;;;;;;10.48;9.43;;;;;;;4.07;72.51;98676.00;10478489;28;21644;-66
2021/01/24 16:06:15;;;;;;;11.00;9.98;;;;;;;4.05;71.32;98657.69;10481624;28;20222;-67
2021/01/24 16:11:16;;;;;;;7.45;6.65;;;;;;;4.17;71.33;98676.09;10480471;28;20528;-67
2021/01/24 16:16:17;;;;;;;8.98;8.10;;;;;;;4.09;72.08;98678.53;10484054;28;20057;-68
2021/01/24 16:21:19;;;;;;;10.75;8.90;;;;;;;4.05;71.71;98673.50;10481346;28;20052;-65
2021/01/24 16:26:20;;;;;;;7.65;6.90;;;;;;;4.16;70.72;98680.56;10483657;28;20159;-67
2021/01/24 16:31:21;;;;;;;8.93;8.07;;;;;;;4.11;70.43;98680.06;10481012;28;20133;-66
2021/01/24 16:36:22;;;;;;;9.32;8.43;;;;;;;4.05;71.25;98681.41;10498528;28;20051;-65
2021/01/24 16:41:23;;;;;;;7.22;6.28;;;;;;;4.00;69.10;98703.78;10485761;28;20121;-65
2021/01/24 16:46:25;;;;;;;6.97;5.82;;;;;;;3.92;70.10;98703.53;10477534;28;20189;-65
2021/01/24 16:51:26;;;;;;;5.93;4.38;;;;;;;3.80;68.71;98702.66;10478009;28;20610;-67
2021/01/24 16:56:27;;;;;;;10.82;8.43;;;;;;;3.70;70.22;98684.97;10488366;28;20147;-69
2021/01/24 17:01:28;;;;;;;5.78;5.15;;;;;;;3.87;70.30;98707.38;10487999;28;20117;-68
2021/01/24 17:06:31;;;;;;;4.70;4.10;;;;;;;3.90;69.57;98701.00;10494182;28;20107;-68
2021/01/24 17:11:32;;;;;;;5.20;4.25;;;;;;;3.83;67.79;98691.94;10508349;28;20109;-68
2021/01/24 17:16:34;;;;;;;4.50;4.05;;;;;;;3.81;67.56;98707.81;10485385;28;20044;-68
2021/01/24 17:21:36;;;;;;;4.15;3.83;;;;;;;3.81;67.96;98692.03;10484635;28;20056;-68
2021/01/24 17:26:37;;;;;;;5.45;3.58;;;;;;;3.95;68.48;98682.22;10493477;28;20123;-67
2021/01/24 17:31:39;;;;;;;4.55;3.63;;;;;;;3.96;66.84;98702.34;10486661;28;20129;-65
2021/01/24 17:36:41;;;;;;;4.65;3.55;;;;;;;3.71;66.16;98680.56;10492652;28;20403;-67
2021/01/24 17:41:42;;;;;;;4.25;3.10;;;;;;;3.60;66.65;98686.63;10487569;28;20236;-67
2021/01/24 17:46:43;;;;;;;5.43;4.40;;;;;;;3.44;67.40;98680.84;10484232;28;20043;-67
2021/01/24 17:51:45;;;;;;;5.28;3.65;;;;;;;3.42;67.26;98659.94;10488918;28;20150;-67
2021/01/24 17:56:46;;;;;;;4.75;4.25;;;;;;;3.41;66.76;98683.72;10488275;28;20075;-67
2021/01/24 18:01:47;;;;;;;4.80;4.10;;;;;;;3.40;67.41;98682.06;10494366;28;20102;-69
2021/01/24 18:06:49;;;;;;;4.95;4.13;;;;;;;3.32;67.19;98682.66;10487130;28;20186;-67
2021/01/24 18:11:51;;;;;;;4.38;3.85;;;;;;;3.28;67.11;98674.13;10488568;28;20405;-66
2021/01/24 18:16:52;;;;;;;4.57;4.07;;;;;;;3.19;66.29;98691.44;10481531;28;20044;-67
2021/01/24 18:21:53;;;;;;;6.50;4.22;;;;;;;3.06;66.22;98693.31;10487229;28;20047;-70
2021/01/24 18:26:55;;;;;;;4.85;4.35;;;;;;;2.99;66.07;98687.69;10524506;22;20076;-69
2021/01/24 18:31:56;;;;;;;5.55;3.85;;;;;;;2.96;67.06;98685.28;10501985;27;20078;-69
2021/01/24 18:36:58;;;;;;;4.15;3.70;;;;;;;2.80;65.82;98684.72;10500331;28;20078;-70
2021/01/24 18:41:59;;;;;;;4.20;3.28;;;;;;;2.75;66.83;98685.06;10505215;27;20064;-70
2021/01/24 18:47:00;;;;;;;5.20;3.97;;;;;;;2.76;66.61;98692.00;10506138;28;20572;-73
2021/01/24 18:52:02;;;;;;;5.57;4.38;;;;;;;2.74;66.96;98693.91;10501957;27;20108;-70
2021/01/24 18:57:03;;;;;;;12.50;11.23;;;;;;;2.60;66.56;98700.16;10499437;28;20623;-71
2021/01/24 19:02:08;;;;;;;6.50;4.20;;;;;;;2.52;67.22;98694.59;10496846;28;20052;-70
2021/01/24 19:07:13;;;;;;;6.47;3.07;;;;;;;2.47;67.35;98708.06;10497711;28;20055;-71
2021/01/24 19:12:14;;;;;;;4.97;4.43;;;;;;;2.68;67.91;98712.72;10505682;28;20053;-71
2021/01/24 19:17:16;;;;;;;5.18;4.20;;;;;;;2.69;67.28;98713.56;10505871;28;20056;-70
2021/01/24 19:22:17;;;;;;;5.82;4.32;;;;;;;2.71;67.03;98723.03;10498775;28;20048;-71
2021/01/24 19:27:19;;;;;;;6.28;4.22;;;;;;;2.68;66.46;98707.47;10501751;28;20657;-71
2021/01/24 19:32:20;;;;;;;4.95;4.13;;;;;;;2.87;67.21;98716.63;10503502;28;20060;-71
2021/01/24 19:37:21;;;;;;;5.43;4.32;;;;;;;2.96;66.97;98711.56;10503146;28;20428;-71
2021/01/24 19:42:23;;;;;;;6.00;4.13;;;;;;;3.07;67.07;98696.78;10500244;28;20072;-70
2021/01/24 19:47:24;;;;;;;6.38;4.88;;;;;;;3.21;65.84;98703.66;10503600;28;20435;-72
2021/01/24 19:52:26;;;;;;;6.80;4.80;;;;;;;3.18;66.06;98712.59;10526228;28;20310;-70
2021/01/24 19:57:27;;;;;;;5.90;4.55;;;;;;;3.13;65.36;98696.31;10512811;28;20056;-71
2021/01/24 20:02:28;;;;;;;5.97;4.90;;;;;;;3.05;65.37;98704.78;10499823;28;20128;-71
2021/01/24 20:07:31;;;;;;;5.03;4.53;;;;;;;2.99;64.70;98710.50;10502070;28;20163;-69
2021/01/24 20:12:32;;;;;;;4.72;4.32;;;;;;;2.87;64.97;98709.63;10511652;28;20047;-72
2021/01/24 20:17:33;;;;;;;4.43;4.03;;;;;;;2.72;65.11;98698.44;10520068;28;20048;-71
2021/01/24 20:22:35;;;;;;;6.25;4.80;;;;;;;2.62;64.38;98707.94;10522608;28;20105;-72
2021/01/24 20:27:36;;;;;;;5.47;4.45;;;;;;;2.71;65.58;98706.44;10512315;28;20051;-71
2021/01/24 20:32:37;;;;;;;6.38;5.05;;;;;;;2.88;65.67;98713.91;10506990;28;20136;-73
2021/01/24 20:37:39;;;;;;;6.93;4.90;;;;;;;2.76;64.07;98710.41;10504894;28;20055;-71
2021/01/24 20:42:40;;;;;;;6.43;5.78;;;;;;;2.73;63.34;98715.03;10506436;28;20086;-71
2021/01/24 20:47:41;;;;;;;5.05;4.55;;;;;;;2.66;64.18;98717.28;10503402;28;21023;-70
2021/01/24 20:52:43;;;;;;;6.40;4.57;;;;;;;2.70;64.93;98705.56;10505270;28;20071;-70
2021/01/24 20:57:44;;;;;;;7.13;5.35;;;;;;;2.89;65.06;98699.00;10506813;28;20072;-73
2021/01/24 21:02:45;;;;;;;5.25;4.72;;;;;;;2.99;65.06;98692.09;10505469;27;20094;-69
2021/01/24 21:07:47;;;;;;;5.68;5.10;;;;;;;3.09;65.58;98679.97;10502962;28;20062;-70
2021/01/24 21:12:48;;;;;;;5.57;4.57;;;;;;;3.10;63.77;98668.47;10503454;28;20054;-71
2021/01/24 21:17:51;;;;;;;5.15;4.22;;;;;;;3.06;64.89;98663.56;10503410;28;20051;-71
2021/01/24 21:22:52;;;;;;;4.82;4.40;;;;;;;2.96;64.45;98643.22;10505653;27;20055;-71
2021/01/24 21:27:54;;;;;;;5.68;4.88;;;;;;;3.09;63.14;98664.19;10499955;28;20647;-71
2021/01/24 21:32:55;;;;;;;6.45;4.97;;;;;;;3.03;62.32;98654.09;10502705;28;20391;-71
2021/01/24 21:37:56;;;;;;;5.28;4.63;;;;;;;3.01;63.36;98656.00;10498913;28;20545;-69
2021/01/24 21:42:58;;;;;;;4.53;4.03;;;;;;;3.10;63.70;98655.31;10501689;28;21560;-69
2021/01/24 21:47:59;;;;;;;6.78;5.22;;;;;;;3.09;63.44;98640.53;10492462;28;20059;-69
2021/01/24 21:53:00;;;;;;;10.20;7.78;;;;;;;3.10;63.01;98644.81;10508062;28;20091;-70
2021/01/24 21:58:01;;;;;;;7.88;5.57;;;;;;;3.10;62.47;98641.34;10517673;28;20105;-70
2021/01/24 22:03:07;;;;;;;6.65;4.80;;;;;;;3.10;64.61;98642.16;10492036;28;20114;-72
2021/01/24 22:08:08;;;;;;;6.75;4.68;;;;;;;3.08;64.45;98651.97;10492465;28;20053;-72
2021/01/24 22:13:10;;;;;;;4.68;4.20;;;;;;;3.03;64.07;98643.59;10490624;28;20064;-69
2021/01/24 22:18:11;;;;;;;5.03;4.50;;;;;;;3.04;64.52;98652.31;10492650;28;20493;-68
2021/01/24 22:23:12;;;;;;;6.07;5.47;;;;;;;2.95;64.38;98638.91;10493877;28;20045;-68
2021/01/24 22:28:14;;;;;;;5.40;4.90;;;;;;;3.04;64.59;98633.94;10489304;28;20052;-70
2021/01/24 22:33:15;;;;;;;6.78;5.20;;;;;;;3.03;64.11;98626.97;10491494;28;20103;-70
2021/01/24 22:38:18;;;;;;;7.63;6.00;;;;;;;3.03;64.85;98619.91;10482079;28;20612;-69
2021/01/24 22:43:19;;;;;;;9.10;8.18;;;;;;;3.02;65.96;98618.28;10493339;28;20045;-70
2021/01/24 22:48:20;;;;;;;8.60;7.65;;;;;;;3.01;66.26;98614.78;10495324;28;20051;-70
2021/01/24 22:53:21;;;;;;;9.85;8.00;;;;;;;2.97;66.42;98609.88;10500252;27;20051;-70
2021/01/24 22:58:23;;;;;;;7.28;6.55;;;;;;;2.82;65.61;98615.34;10497785;27;20762;-67
2021/01/24 23:03:24;;;;;;;7.25;6.25;;;;;;;2.86;66.41;98608.06;10489281;28;20074;-70
2021/01/24 23:08:28;;;;;;;7.28;6.57;;;;;;;2.96;65.33;98608.22;10493728;28;20048;-69
2021/01/24 23:13:29;;;;;;;7.72;6.63;;;;;;;2.85;65.51;98592.41;10492919;28;20097;-70
2021/01/24 23:18:30;;;;;;;8.52;6.75;;;;;;;2.91;66.34;98591.94;10504770;27;20066;-70
2021/01/24 23:23:31;;;;;;;6.88;6.22;;;;;;;2.88;66.19;98587.75;10495165;28;20052;-70
2021/01/24 23:28:33;;;;;;;6.93;6.20;;;;;;;2.83;66.86;98574.94;10500688;28;20068;-71
2021/01/24 23:33:35;;;;;;;10.43;6.75;;;;;;;2.77;66.94;98564.91;10519660;27;20445;-70
2021/01/24 23:38:36;;;;;;;8.57;6.72;;;;;;;2.81;66.80;98560.28;10519202;28;20040;-71
2021/01/24 23:43:37;;;;;;;8.27;6.80;;;;;;;2.77;67.17;98572.78;10503352;28;20571;-70